createdAt,value
2023-03-06T00:00:37.047Z,6.22
2023-03-06T00:03:07.702Z,6.41
2023-03-06T00:05:37.738Z,6.14
2023-03-06T00:08:07.843Z,5.93
2023-03-06T00:10:37.493Z,5.70
2023-03-06T00:13:09.713Z,5.80
2023-03-06T00:15:39.175Z,5.79
2023-03-06T00:18:10.998Z,6.07
2023-03-06T00:20:41.538Z,5.98
2023-03-06T00:23:11.054Z,5.99
2023-03-06T00:25:43.841Z,6.07
2023-03-06T00:28:16.123Z,6.07
2023-03-06T00:30:46.255Z,5.94
2023-03-06T00:33:17.971Z,6.11
2023-03-06T00:35:46.745Z,5.99
2023-03-06T00:38:16.062Z,6.04
2023-03-06T00:40:45.112Z,6.09
2023-03-06T00:43:14.613Z,6.04
2023-03-06T00:45:43.767Z,5.87
2023-03-06T00:48:13.542Z,5.78
2023-03-06T00:50:43.664Z,5.96
2023-03-06T00:53:13.486Z,5.83
2023-03-06T00:55:45.940Z,5.96
2023-03-06T00:58:15.059Z,5.97
2023-03-06T01:00:44.278Z,5.83
2023-03-06T01:03:13.648Z,5.85
2023-03-06T01:05:47.006Z,5.88
2023-03-06T01:08:22.648Z,6.08
2023-03-06T01:10:51.572Z,5.85
2023-03-06T01:13:20.996Z,6.00
2023-03-06T01:15:50.776Z,5.83
2023-03-06T01:18:19.462Z,5.84
2023-03-06T01:20:50.420Z,5.81
2023-03-06T01:23:25.790Z,5.69
2023-03-06T01:25:54.521Z,5.78
2023-03-06T01:28:24.880Z,5.92
2023-03-06T01:30:53.641Z,5.94
2023-03-06T01:33:22.335Z,5.44
2023-03-06T01:35:52.870Z,5.74
2023-03-06T01:38:21.236Z,5.79
2023-03-06T01:40:52.398Z,5.81
2023-03-06T01:43:31.006Z,5.92
2023-03-06T01:46:35.152Z,6.00
2023-03-06T01:49:08.692Z,5.76
2023-03-06T01:51:41.292Z,5.64
2023-03-06T01:54:14.263Z,5.75
2023-03-06T01:56:45.000Z,5.78
2023-03-06T01:59:14.915Z,5.81
2023-03-06T02:01:44.120Z,5.79
2023-03-06T02:04:13.452Z,5.76
2023-03-06T02:06:45.251Z,5.88
2023-03-06T02:09:14.719Z,5.83
2023-03-06T02:11:44.637Z,5.90
2023-03-06T02:14:14.397Z,5.74
2023-03-06T02:16:44.447Z,5.94
2023-03-06T02:19:23.737Z,5.94
2023-03-06T02:21:54.174Z,5.97
2023-03-06T02:24:32.494Z,6.07
2023-03-06T02:27:04.476Z,6.18
2023-03-06T02:29:33.455Z,6.04
2023-03-06T02:32:02.946Z,5.85
2023-03-06T02:34:52.700Z,5.99
2023-03-06T02:37:23.963Z,6.08
2023-03-06T02:40:02.089Z,6.19
2023-03-06T02:42:33.226Z,6.11
2023-03-06T02:45:05.671Z,6.18
2023-03-06T02:47:35.238Z,6.34
2023-03-06T02:50:04.995Z,6.26
2023-03-06T02:52:37.604Z,6.38
2023-03-06T02:55:07.483Z,6.39
2023-03-06T02:57:38.064Z,6.36
2023-03-06T03:00:08.761Z,6.55
2023-03-06T03:02:37.666Z,6.50
2023-03-06T03:05:09.012Z,6.49
2023-03-06T03:07:49.745Z,6.53
2023-03-06T03:10:18.963Z,6.64
2023-03-06T03:12:49.671Z,6.58
2023-03-06T03:15:19.073Z,6.71
2023-03-06T03:17:50.988Z,6.72
2023-03-06T03:20:23.411Z,6.72
2023-03-06T03:22:53.390Z,6.54
2023-03-06T03:25:24.148Z,6.27
2023-03-06T03:27:54.916Z,6.65
2023-03-06T03:30:24.669Z,6.61
2023-03-06T03:32:53.447Z,6.50
2023-03-06T03:35:23.959Z,6.43
2023-03-06T03:37:55.126Z,6.32
2023-03-06T03:40:24.785Z,6.15
2023-03-06T03:42:55.506Z,6.18
2023-03-06T03:45:24.589Z,6.36
2023-03-06T03:47:55.468Z,6.55
2023-03-06T03:50:26.884Z,6.01
2023-03-06T03:52:57.085Z,6.41
2023-03-06T03:55:26.837Z,6.14
2023-03-06T03:57:57.342Z,6.29
2023-03-06T04:00:30.126Z,6.31
2023-03-06T04:02:59.460Z,6.36
2023-03-06T04:05:28.831Z,6.25
2023-03-06T04:07:59.540Z,6.30
2023-03-06T04:10:28.204Z,6.17
2023-03-06T04:12:59.771Z,5.92
2023-03-06T04:15:28.391Z,6.18
2023-03-06T04:18:01.067Z,6.31
2023-03-06T04:20:31.689Z,6.30
2023-03-06T04:23:01.070Z,6.35
2023-03-06T04:25:29.627Z,5.93
2023-03-06T04:28:02.756Z,6.08
2023-03-06T04:30:31.839Z,6.18
2023-03-06T04:33:01.466Z,6.15
2023-03-06T04:35:31.117Z,6.11
2023-03-06T04:38:03.016Z,6.43
2023-03-06T04:40:34.047Z,6.66
2023-03-06T04:43:06.325Z,6.33
2023-03-06T04:45:35.782Z,6.21
2023-03-06T04:48:04.985Z,6.46
2023-03-06T04:50:38.238Z,6.27
2023-03-06T04:53:08.675Z,6.26
2023-03-06T04:55:39.382Z,6.45
2023-03-06T04:58:10.027Z,6.19
2023-03-06T05:00:38.956Z,5.94
2023-03-06T05:03:10.451Z,6.15
2023-03-06T05:05:40.869Z,6.15
2023-03-06T05:08:10.071Z,5.92
2023-03-06T05:10:39.391Z,6.07
2023-03-06T05:13:11.245Z,5.71
2023-03-06T05:15:42.302Z,5.92
2023-03-06T05:18:11.560Z,5.83
2023-03-06T05:20:40.666Z,6.19
2023-03-06T05:23:09.664Z,5.76
2023-03-06T05:25:41.107Z,6.03
2023-03-06T05:28:15.540Z,5.78
2023-03-06T05:30:46.309Z,6.18
2023-03-06T05:33:18.537Z,5.83
2023-03-06T05:35:49.816Z,5.98
2023-03-06T05:38:20.617Z,5.79
2023-03-06T05:40:50.762Z,6.18
2023-03-06T05:43:21.838Z,6.10
2023-03-06T05:45:53.358Z,6.16
2023-03-06T05:48:22.333Z,5.92
2023-03-06T05:50:58.902Z,6.13
2023-03-06T05:53:31.404Z,5.99
2023-03-06T05:56:01.228Z,6.42
2023-03-06T05:58:33.801Z,6.19
2023-03-06T06:01:10.545Z,6.24
2023-03-06T06:03:43.366Z,6.67
2023-03-06T06:06:14.787Z,6.77
2023-03-06T06:08:49.365Z,6.88
2023-03-06T06:11:28.287Z,6.70
2023-03-06T06:14:40.785Z,6.66
2023-03-06T06:17:12.748Z,6.79
2023-03-06T06:19:42.281Z,6.93
2023-03-06T06:22:13.887Z,6.77
2023-03-06T06:24:46.770Z,6.70
2023-03-06T06:27:15.414Z,6.59
2023-03-06T06:29:51.851Z,6.20
2023-03-06T06:32:23.585Z,6.51
2023-03-06T06:34:53.370Z,6.50
2023-03-06T06:37:22.350Z,6.64
2023-03-06T06:39:51.819Z,6.60
2023-03-06T06:45:21.461Z,6.49
2023-03-06T06:47:52.075Z,6.71
2023-03-06T06:50:21.172Z,6.55
2023-03-06T06:52:51.626Z,6.53
2023-03-06T06:55:20.589Z,6.65
2023-03-06T06:57:49.090Z,6.59
2023-03-06T07:00:21.343Z,6.56
2023-03-06T07:02:51.496Z,6.82
2023-03-06T07:05:22.209Z,6.89
2023-03-06T07:07:54.035Z,6.84
2023-03-06T07:10:23.063Z,6.83
2023-03-06T07:15:43.227Z,7.95
2023-03-06T07:18:12.201Z,8.15
2023-03-06T07:20:40.681Z,8.90
2023-03-06T07:23:12.676Z,9.11
2023-03-06T07:25:41.615Z,8.61
2023-03-06T07:28:10.420Z,9.23
2023-03-06T07:30:41.298Z,8.86
2023-03-06T07:33:16.453Z,8.98
2023-03-06T07:35:46.211Z,8.60
2023-03-06T07:38:15.503Z,8.48
2023-03-06T07:40:44.123Z,9.04
2023-03-06T07:43:19.106Z,9.23
2023-03-06T07:45:48.265Z,8.73
2023-03-06T07:48:18.263Z,8.56
2023-03-06T07:50:55.521Z,8.74
2023-03-06T07:53:24.838Z,9.00
2023-03-06T07:55:53.829Z,9.07
2023-03-06T07:58:22.638Z,9.00
2023-03-06T08:00:51.236Z,9.23
2023-03-06T08:03:21.648Z,9.56
2023-03-06T08:05:50.381Z,9.49
2023-03-06T08:08:18.897Z,9.67
2023-03-06T08:10:50.180Z,9.41
2023-03-06T08:13:18.783Z,9.46
2023-03-06T08:15:50.508Z,9.82
2023-03-06T08:18:21.017Z,9.23
2023-03-06T08:20:50.724Z,9.70
2023-03-06T08:23:19.615Z,10.07
2023-03-06T08:25:49.224Z,9.47
2023-03-06T08:28:17.762Z,9.88
2023-03-06T08:30:46.288Z,9.56
2023-03-06T08:33:14.990Z,9.89
2023-03-06T08:35:45.005Z,10.31
2023-03-06T08:38:13.829Z,10.04
2023-03-06T08:40:42.869Z,9.78
2023-03-06T08:43:14.188Z,9.97
2023-03-06T08:45:43.013Z,10.46
2023-03-06T08:48:11.588Z,10.40
2023-03-06T08:50:44.296Z,10.27
2023-03-06T08:53:13.292Z,10.24
2023-03-06T08:55:42.327Z,10.35
2023-03-06T08:58:11.068Z,10.45
2023-03-06T09:00:40.313Z,10.06
2023-03-06T09:03:11.754Z,10.15
2023-03-06T09:05:44.793Z,9.85
2023-03-06T09:08:13.637Z,9.67
2023-03-06T09:10:46.472Z,10.39
2023-03-06T09:13:15.339Z,10.11
2023-03-06T09:15:44.252Z,9.92
2023-03-06T09:18:12.852Z,10.19
2023-03-06T09:20:41.424Z,10.66
2023-03-06T09:23:12.268Z,10.35
2023-03-06T09:25:40.862Z,10.20
2023-03-06T09:28:11.892Z,10.64
2023-03-06T09:30:42.353Z,10.85
2023-03-06T09:33:11.193Z,10.55
2023-03-06T09:35:45.786Z,11.53
2023-03-06T09:38:16.140Z,11.57
2023-03-06T09:41:00.814Z,11.85
2023-03-06T09:43:35.488Z,11.09
2023-03-06T09:46:17.882Z,10.74
2023-03-06T09:49:01.593Z,11.57
2023-03-06T09:51:42.751Z,11.49
2023-03-06T09:54:16.169Z,11.79
2023-03-06T09:56:52.231Z,11.87
2023-03-06T09:59:23.972Z,11.83
2023-03-06T10:02:02.602Z,11.68
2023-03-06T10:04:39.459Z,11.49
2023-03-06T10:07:16.860Z,11.50
2023-03-06T10:09:53.865Z,12.14
2023-03-06T10:12:28.504Z,12.43
2023-03-06T10:15:18.164Z,12.05
2023-03-06T10:17:47.233Z,12.17
2023-03-06T10:20:22.679Z,12.05
2023-03-06T10:23:12.054Z,12.73
2023-03-06T10:25:51.802Z,11.26
2023-03-06T10:28:25.661Z,12.10
2023-03-06T10:31:02.002Z,12.47
2023-03-06T10:33:45.822Z,12.76
2023-03-06T10:36:19.937Z,12.28
2023-03-06T10:38:50.444Z,12.43
2023-03-06T10:41:27.577Z,12.82
2023-03-06T10:44:26.152Z,12.54
2023-03-06T10:46:56.876Z,12.70
2023-03-06T10:49:33.988Z,12.87
2023-03-06T10:52:06.845Z,12.12
2023-03-06T10:54:37.831Z,12.71
2023-03-06T10:57:27.173Z,12.84
2023-03-06T10:59:58.081Z,13.22
2023-03-06T11:02:31.841Z,12.06
2023-03-06T11:05:03.661Z,12.81
2023-03-06T11:07:34.196Z,12.79
2023-03-06T11:10:18.054Z,13.35
2023-03-06T11:12:59.844Z,13.16
2023-03-06T11:15:29.973Z,12.72
2023-03-06T11:18:03.795Z,12.79
2023-03-06T11:20:50.883Z,13.21
2023-03-06T11:23:30.383Z,13.18
2023-03-06T11:26:04.948Z,13.02
2023-03-06T11:28:41.621Z,13.17
2023-03-06T11:31:17.088Z,13.45
2023-03-06T11:33:52.705Z,13.58
2023-03-06T11:36:31.543Z,13.83
2023-03-06T11:39:00.456Z,13.74
2023-03-06T11:41:46.024Z,14.21
2023-03-06T11:44:25.870Z,13.39
2023-03-06T11:47:08.776Z,13.45
2023-03-06T11:49:45.614Z,13.80
2023-03-06T11:52:24.243Z,13.32
2023-03-06T11:54:57.586Z,13.55
2023-03-06T11:57:34.499Z,13.56
2023-03-06T12:00:30.845Z,13.51
2023-03-06T12:03:30.487Z,13.20
2023-03-06T12:06:07.377Z,13.19
2023-03-06T12:08:58.680Z,12.77
2023-03-06T12:11:36.904Z,13.47
2023-03-06T12:14:30.620Z,12.98
2023-03-06T12:17:17.578Z,13.60
2023-03-06T12:20:21.091Z,13.69
2023-03-06T12:22:57.839Z,13.71
2023-03-06T12:25:37.711Z,13.22
2023-03-06T12:28:32.282Z,12.52
2023-03-06T12:31:36.569Z,12.78
2023-03-06T12:34:25.472Z,12.98
2023-03-06T12:37:12.495Z,12.00
2023-03-06T12:39:58.045Z,12.75
2023-03-06T12:42:48.346Z,12.80
2023-03-06T12:45:33.557Z,12.49
2023-03-06T12:48:03.571Z,13.13
2023-03-06T12:50:37.319Z,12.76
2023-03-06T12:53:15.368Z,13.24
2023-03-06T12:55:48.043Z,13.84
2023-03-06T12:58:37.205Z,13.33
2023-03-06T13:01:15.062Z,13.74
2023-03-06T13:04:06.228Z,13.57
2023-03-06T13:07:03.143Z,12.72
2023-03-06T13:09:37.506Z,13.16
2023-03-06T13:12:26.863Z,13.75
2023-03-06T13:15:01.860Z,13.41
2023-03-06T13:17:37.163Z,13.01
2023-03-06T13:20:39.726Z,13.25
2023-03-06T13:23:51.855Z,13.32
2023-03-06T13:27:00.641Z,13.08
2023-03-06T13:30:52.633Z,13.07
2023-03-06T13:34:01.834Z,13.38
2023-03-06T13:36:32.774Z,12.73
2023-03-06T13:39:10.216Z,12.60
2023-03-06T13:42:02.751Z,12.43
2023-03-06T13:44:53.229Z,12.24
2023-03-06T13:48:09.733Z,11.51
2023-03-06T13:50:43.515Z,12.01
2023-03-06T13:53:54.997Z,12.01
2023-03-06T13:57:22.736Z,12.10
2023-03-06T14:00:22.223Z,12.20
2023-03-06T14:03:27.526Z,11.90
2023-03-06T14:05:56.235Z,11.92
2023-03-06T14:08:28.990Z,11.86
2023-03-06T14:11:04.961Z,12.31
2023-03-06T14:13:47.218Z,11.82
2023-03-06T14:16:22.608Z,11.90
2023-03-06T14:18:54.760Z,12.24
2023-03-06T14:21:31.557Z,11.86
2023-03-06T14:24:01.907Z,11.63
2023-03-06T14:26:33.963Z,11.84
2023-03-06T14:29:04.938Z,11.42
2023-03-06T14:31:37.652Z,11.52
2023-03-06T14:34:08.283Z,11.35
2023-03-06T14:36:44.678Z,10.85
2023-03-06T14:39:16.761Z,10.69
2023-03-06T14:41:45.659Z,10.73
2023-03-06T14:44:22.633Z,10.42
2023-03-06T14:46:53.070Z,10.90
2023-03-06T14:49:23.852Z,10.51
2023-03-06T14:51:54.959Z,10.00
2023-03-06T14:54:28.653Z,9.98
2023-03-06T14:57:03.322Z,9.92
2023-03-06T14:59:46.166Z,10.28
2023-03-06T15:02:21.960Z,10.01
2023-03-06T15:04:55.449Z,10.05
2023-03-06T15:07:27.935Z,9.80
2023-03-06T15:09:57.427Z,9.37
2023-03-06T15:12:46.517Z,9.63
2023-03-06T15:15:32.828Z,9.73
2023-03-06T15:18:01.616Z,9.37
2023-03-06T15:20:53.149Z,8.98
2023-03-06T15:23:26.557Z,9.01
2023-03-06T15:25:59.637Z,9.16
2023-03-06T15:28:35.361Z,9.18
2023-03-06T15:31:22.275Z,8.84
2023-03-06T15:34:26.223Z,9.42
2023-03-06T15:36:57.187Z,8.89
2023-03-06T15:39:38.844Z,9.27
2023-03-06T15:42:20.685Z,9.29
2023-03-06T15:44:53.226Z,8.96
2023-03-06T15:47:27.773Z,9.26
2023-03-06T15:49:56.980Z,9.23
2023-03-06T15:52:25.580Z,9.12
2023-03-06T15:54:54.310Z,9.32
2023-03-06T15:57:28.416Z,8.60
2023-03-06T15:59:58.795Z,9.10
2023-03-06T16:02:31.166Z,8.51
2023-03-06T16:05:06.914Z,9.09
2023-03-06T16:07:38.146Z,9.20
2023-03-06T16:10:08.018Z,8.53
2023-03-06T16:12:43.051Z,8.80
2023-03-06T16:15:24.766Z,8.63
2023-03-06T16:17:58.851Z,8.68
2023-03-06T16:20:29.436Z,8.48
2023-03-06T16:23:00.723Z,8.61
2023-03-06T16:25:31.077Z,8.39
2023-03-06T16:28:03.478Z,8.11
2023-03-06T16:30:38.538Z,8.34
2023-03-06T16:33:10.771Z,8.13
2023-03-06T16:35:41.841Z,8.11
2023-03-06T16:38:11.974Z,7.98
2023-03-06T16:40:42.638Z,7.77
2023-03-06T16:43:13.548Z,7.39
2023-03-06T16:45:43.745Z,8.10
2023-03-06T16:48:19.048Z,8.04
2023-03-06T16:50:47.819Z,7.88
2023-03-06T16:53:16.715Z,7.76
2023-03-06T16:55:47.058Z,7.71
2023-03-06T16:58:15.842Z,8.08
2023-03-06T17:00:44.563Z,7.62
2023-03-06T17:03:12.975Z,7.63
2023-03-06T17:05:44.178Z,7.82
2023-03-06T17:08:16.405Z,7.19
2023-03-06T17:10:50.124Z,7.38
2023-03-06T17:13:22.161Z,7.75
2023-03-06T17:16:48.100Z,7.76
2023-03-06T17:19:37.733Z,7.42
2023-03-06T17:22:16.009Z,7.79
2023-03-06T17:24:44.574Z,7.93
2023-03-06T17:30:02.552Z,7.42
2023-03-06T17:32:34.107Z,7.63
2023-03-06T17:35:03.131Z,7.65
2023-03-06T17:37:34.087Z,7.40
2023-03-06T17:40:02.796Z,7.60
2023-03-06T17:42:33.457Z,7.54
2023-03-06T17:45:02.217Z,7.30
2023-03-06T17:47:30.820Z,7.51
2023-03-06T17:49:59.310Z,7.53
2023-03-06T17:52:31.402Z,7.37
2023-03-06T17:55:01.603Z,7.36
2023-03-06T17:57:43.477Z,7.03
2023-03-06T18:00:16.933Z,7.71
2023-03-06T18:02:45.487Z,7.05
2023-03-06T18:05:14.026Z,7.29
2023-03-06T18:07:44.901Z,7.25
2023-03-06T18:10:22.062Z,7.13
2023-03-06T18:12:50.633Z,7.44
2023-03-06T18:15:19.757Z,7.19
2023-03-06T18:17:48.424Z,7.33
2023-03-06T18:20:17.310Z,7.31
2023-03-06T18:22:45.684Z,7.13
2023-03-06T18:25:15.725Z,7.01
2023-03-06T18:27:44.598Z,6.78
2023-03-06T18:30:14.611Z,7.32
2023-03-06T18:32:43.184Z,7.25
2023-03-06T18:35:12.249Z,6.77
2023-03-06T18:37:40.769Z,7.06
2023-03-06T18:40:11.399Z,7.27
2023-03-06T18:42:41.624Z,6.70
2023-03-06T18:45:11.865Z,6.57
2023-03-06T18:47:40.607Z,7.09
2023-03-06T18:50:16.543Z,7.07
2023-03-06T18:52:45.763Z,7.29
2023-03-06T18:55:14.517Z,7.08
2023-03-06T18:57:44.437Z,6.87
2023-03-06T19:00:14.529Z,7.06
2023-03-06T19:02:43.825Z,6.70
2023-03-06T19:05:12.515Z,6.84
2023-03-06T19:07:41.613Z,7.04
2023-03-06T19:10:12.863Z,6.86
2023-03-06T19:12:41.537Z,6.84
2023-03-06T19:15:12.075Z,6.43
2023-03-06T19:17:40.652Z,6.76
2023-03-06T19:20:11.313Z,6.97
2023-03-06T19:22:40.117Z,6.62
2023-03-06T19:25:10.504Z,6.67
2023-03-06T19:27:39.486Z,6.58
2023-03-06T19:30:12.704Z,6.97
2023-03-06T19:32:41.826Z,6.98
2023-03-06T19:35:11.174Z,6.72
2023-03-06T19:37:39.994Z,6.73
2023-03-06T19:40:10.806Z,6.59
2023-03-06T19:42:47.239Z,6.46
2023-03-06T19:45:17.338Z,6.27
2023-03-06T19:47:47.333Z,6.62
2023-03-06T19:50:15.833Z,6.83
2023-03-06T19:52:44.711Z,6.67
2023-03-06T19:55:13.188Z,6.59
2023-03-06T19:57:41.867Z,6.90
2023-03-06T20:00:13.115Z,6.74
2023-03-06T20:02:43.014Z,6.30
2023-03-06T20:05:14.581Z,6.95
2023-03-06T20:07:43.102Z,6.51
2023-03-06T20:10:13.013Z,6.93
2023-03-06T20:12:41.753Z,6.64
2023-03-06T20:15:13.840Z,7.03
2023-03-06T20:17:43.747Z,7.28
2023-03-06T20:20:14.379Z,6.90
2023-03-06T20:22:43.097Z,7.02
2023-03-06T20:25:13.195Z,7.20
2023-03-06T20:27:41.657Z,6.63
2023-03-06T20:30:12.918Z,6.56
2023-03-06T20:32:41.680Z,7.16
2023-03-06T20:35:12.735Z,7.14
2023-03-06T20:37:41.424Z,7.03
2023-03-06T20:40:13.291Z,6.83
2023-03-06T20:42:41.799Z,7.14
2023-03-06T20:45:11.613Z,7.29
2023-03-06T20:47:47.520Z,7.38
2023-03-06T20:50:36.073Z,7.13
2023-03-06T20:53:23.216Z,7.19
2023-03-06T20:55:52.424Z,7.31
2023-03-06T20:58:23.569Z,7.46
2023-03-06T21:00:52.120Z,7.72
2023-03-06T21:03:20.903Z,7.70
2023-03-06T21:05:50.972Z,7.86
2023-03-06T21:08:19.561Z,7.82
2023-03-06T21:10:48.429Z,7.89
2023-03-06T21:13:17.304Z,7.67
2023-03-06T21:15:48.923Z,7.98
2023-03-06T21:18:18.144Z,7.90
2023-03-06T21:20:46.733Z,7.97
2023-03-06T21:23:16.768Z,8.13
2023-03-06T21:25:49.487Z,7.68
2023-03-06T21:28:19.341Z,7.89
2023-03-06T21:30:48.380Z,8.04
2023-03-06T21:33:16.954Z,7.76
2023-03-06T21:35:47.094Z,7.74
2023-03-06T21:38:16.953Z,7.78
2023-03-06T21:40:46.583Z,7.98
2023-03-06T21:43:15.746Z,7.87
2023-03-06T21:45:46.150Z,8.14
2023-03-06T21:48:15.899Z,7.90
2023-03-06T21:50:44.491Z,7.82
2023-03-06T21:53:12.921Z,7.96
2023-03-06T21:55:43.102Z,8.01
2023-03-06T21:58:11.485Z,8.26
2023-03-06T22:00:40.710Z,8.33
2023-03-06T22:03:09.333Z,8.08
2023-03-06T22:05:37.779Z,8.26
2023-03-06T22:08:06.431Z,8.09
2023-03-06T22:10:35.086Z,8.09
2023-03-06T22:13:05.172Z,8.11
2023-03-06T22:15:36.288Z,8.08
2023-03-06T22:18:23.460Z,8.15
2023-03-06T22:21:12.454Z,8.15
2023-03-06T22:24:00.836Z,8.03
2023-03-06T22:26:48.449Z,7.89
2023-03-06T22:29:37.396Z,8.22
2023-03-06T22:32:24.699Z,7.62
2023-03-06T22:35:11.914Z,7.97
2023-03-06T22:38:02.704Z,8.09
2023-03-06T22:40:50.082Z,8.26
2023-03-06T22:43:38.202Z,8.14
2023-03-06T22:46:27.736Z,7.97
2023-03-06T22:49:17.839Z,8.06
2023-03-06T22:52:05.021Z,8.01
2023-03-06T22:54:52.330Z,8.35
2023-03-06T22:57:39.351Z,7.76
2023-03-06T23:00:11.079Z,8.01
2023-03-06T23:02:59.811Z,7.46
2023-03-06T23:05:47.128Z,7.75
2023-03-06T23:08:34.052Z,7.92
2023-03-06T23:11:02.532Z,7.86
2023-03-06T23:13:49.821Z,8.06
2023-03-06T23:16:37.841Z,7.61
2023-03-06T23:19:26.722Z,7.80
2023-03-06T23:22:14.422Z,7.56
2023-03-06T23:25:01.663Z,7.90
2023-03-06T23:27:48.762Z,8.23
2023-03-06T23:30:18.075Z,7.98
2023-03-06T23:32:46.527Z,7.76
2023-03-06T23:35:16.597Z,8.12
2023-03-06T23:37:45.071Z,8.27
2023-03-06T23:40:17.517Z,8.23
2023-03-06T23:42:47.862Z,7.77
2023-03-06T23:45:16.782Z,7.90
2023-03-06T23:47:46.453Z,8.23
2023-03-06T23:50:16.787Z,8.22
2023-03-06T23:52:45.713Z,8.24
2023-03-06T23:55:14.445Z,8.31
2023-03-06T23:57:43.171Z,8.21
